Time;durP1;ratioP1;P1;durP2;ratioP2;P2;SDS_P1;SDS_P2;PMS_P1;PMS_P2;Temp;Humidity;BMP_temperature;BMP_pressure;BME280_temperature;BME280_humidity;BME280_pressure;Samples;Min_cycle;Max_cycle;Signal;HPM_P1;HPM_P2
2023/04/23 00:00:12;;;;;;;;;3.67;3.67;;;;;14.95;73.73;100064.53;4991929;28;45422;-80
2023/04/23 00:02:38;;;;;;;;;2.00;2.00;;;;;14.97;74.09;100067.19;4985596;28;45440;-80
2023/04/23 00:05:05;;;;;;;;;3.00;3.00;;;;;14.94;74.01;100051.16;4987904;28;45445;-79
2023/04/23 00:07:32;;;;;;;;;1.00;1.00;;;;;14.93;75.33;100063.69;4985852;28;47978;-80
2023/04/23 00:09:59;;;;;;;;;2.50;2.50;;;;;14.87;74.56;100071.78;4986947;28;45369;-81
2023/04/23 00:12:25;;;;;;;;;3.00;3.00;;;;;14.77;74.69;100075.50;4987228;28;45317;-80
2023/04/23 00:14:51;;;;;;;;;1.67;1.67;;;;;14.78;74.73;100071.91;4986872;28;45463;-81
2023/04/23 00:17:16;;;;;;;;;3.00;3.00;;;;;14.79;74.80;100074.56;4987103;28;46515;-80
2023/04/23 00:19:41;;;;;;;;;2.33;2.00;;;;;14.80;74.62;100086.16;4986707;28;44749;-80
2023/04/23 00:22:07;;;;;;;;;3.00;3.00;;;;;14.79;75.52;100079.06;4985694;28;45400;-80
2023/04/23 00:24:34;;;;;;;;;4.67;3.00;;;;;14.72;75.80;100072.00;4985421;28;45483;-80
2023/04/23 00:27:00;;;;;;;;;2.67;1.33;;;;;14.71;76.58;100070.25;4983757;28;47121;-81
2023/04/23 00:29:25;;;;;;;;;1.00;1.00;;;;;14.68;76.39;100064.91;4998370;28;46316;-80
2023/04/23 00:31:51;;;;;;;;;3.00;2.00;;;;;14.65;76.70;100064.97;4987175;28;45421;-80
2023/04/23 00:34:16;;;;;;;;;3.00;2.00;;;;;14.58;76.54;100062.38;5001372;28;45779;-81
2023/04/23 00:36:42;;;;;;;;;0.75;0.75;;;;;14.65;76.44;100081.03;5000449;28;47261;-81
2023/04/23 00:39:08;;;;;;;;;3.00;3.00;;;;;14.63;76.67;100074.81;4984485;28;45361;-81
2023/04/23 00:41:34;;;;;;;;;1.67;1.00;;;;;14.59;77.47;100066.81;5001845;28;45382;-80
2023/04/23 00:43:59;;;;;;;;;2.00;2.00;;;;;14.61;77.72;100077.50;4985807;28;45290;-80
2023/04/23 00:46:25;;;;;;;;;1.00;1.00;;;;;14.57;77.92;100073.97;4986133;28;47230;-80
2023/04/23 00:48:52;;;;;;;;;2.67;2.67;;;;;14.54;78.64;100073.09;4984042;28;45885;-80
2023/04/23 00:51:17;;;;;;;;;3.33;3.33;;;;;14.48;78.36;100058.03;4985753;28;45466;-80
2023/04/23 00:53:43;;;;;;;;;1.00;1.00;;;;;14.49;78.30;100057.09;4986695;28;45394;-80
2023/04/23 00:56:09;;;;;;;;;2.00;2.00;;;;;14.54;79.36;100052.59;4986207;28;45996;-80
2023/04/23 00:58:36;;;;;;;;;2.33;2.33;;;;;14.43;80.10;100049.16;4986796;28;45466;-80
2023/04/23 01:01:11;;;;;;;;;2.00;2.00;;;;;14.46;81.33;100054.47;4986025;28;45342;-80
2023/04/23 01:03:39;;;;;;;;;4.67;3.00;;;;;14.39;80.99;100055.44;4987943;28;45537;-80
2023/04/23 01:06:05;;;;;;;;;1.67;1.67;;;;;14.36;80.74;100055.47;5000263;28;47357;-81
2023/04/23 01:08:31;;;;;;;;;5.00;2.00;;;;;14.36;81.11;100050.13;4985953;28;45654;-80
2023/04/23 01:10:56;;;;;;;;;6.33;2.67;;;;;14.35;81.60;100048.38;5002978;28;45459;-81
2023/04/23 01:13:25;;;;;;;;;2.00;1.00;;;;;14.28;82.48;100042.22;5004730;28;45424;-80
2023/04/23 01:15:51;;;;;;;;;2.00;1.33;;;;;14.29;83.07;100049.31;5005127;28;45460;-81
2023/04/23 01:18:18;;;;;;;;;2.67;2.67;;;;;14.19;83.82;100039.66;5004164;28;45776;-80
2023/04/23 01:20:44;;;;;;;;;2.00;2.00;;;;;14.18;84.52;100032.53;5005430;28;45406;-81
2023/04/23 01:23:10;;;;;;;;;2.00;2.00;;;;;14.16;84.55;100043.25;5004142;28;45431;-80
2023/04/23 01:25:36;;;;;;;;;1.00;1.00;;;;;14.09;85.71;100033.53;5004691;28;47077;-80
2023/04/23 01:28:02;;;;;;;;;3.00;3.00;;;;;14.08;86.52;100036.19;5005618;28;45434;-81
2023/04/23 01:30:27;;;;;;;;;2.67;2.67;;;;;14.03;87.33;100033.59;5004897;28;45471;-80
2023/04/23 01:32:56;;;;;;;;;3.33;2.00;;;;;14.10;87.51;100035.31;5005698;28;45449;-80
2023/04/23 01:35:23;;;;;;;;;2.67;2.67;;;;;14.01;88.12;100024.69;5005641;28;45477;-81
2023/04/23 01:37:51;;;;;;;;;1.33;1.00;;;;;13.98;89.09;100027.44;5002737;28;45699;-81
2023/04/23 01:40:18;;;;;;;;;2.00;1.00;;;;;13.89;91.16;100030.19;4997287;28;45640;-80
2023/04/23 01:42:43;;;;;;;;;4.00;3.67;;;;;13.86;91.40;100035.59;4984744;28;45788;-80
2023/04/23 01:45:09;;;;;;;;;1.33;1.33;;;;;13.86;90.95;100031.13;4967347;28;48428;-80
2023/04/23 01:47:34;;;;;;;;;5.00;3.33;;;;;13.78;92.47;100016.94;4984625;28;45436;-80
2023/04/23 01:50:07;;;;;;;;;3.00;3.00;;;;;13.88;92.71;100012.41;4985376;28;45416;-80
2023/04/23 01:52:33;;;;;;;;;3.00;3.00;;;;;13.72;92.77;100009.88;4967159;28;45428;-80
2023/04/23 01:54:58;;;;;;;;;5.00;3.00;;;;;13.70;92.86;100014.34;4983592;28;46604;-80
2023/04/23 01:57:25;;;;;;;;;2.67;2.67;;;;;13.64;92.74;99993.03;4968038;28;45598;-80
2023/04/23 01:59:56;;;;;;;;;2.67;2.67;;;;;13.65;92.44;100000.13;4968831;28;45433;-80
2023/04/23 02:02:22;;;;;;;;;1.33;1.33;;;;;13.71;95.34;100002.75;4967954;28;45556;-80
2023/04/23 02:04:48;;;;;;;;;5.00;4.33;;;;;13.75;94.92;100003.59;4984811;28;47557;-81
2023/04/23 02:07:14;;;;;;;;;4.00;2.33;;;;;13.65;93.40;100005.47;4967747;28;45815;-80
2023/04/23 02:09:39;;;;;;;;;3.00;2.00;;;;;13.71;93.02;99997.41;4968440;28;45442;-80
2023/04/23 02:12:05;;;;;;;;;2.33;2.33;;;;;13.71;93.75;100010.75;4985508;28;45500;-80
2023/04/23 02:14:30;;;;;;;;;3.00;3.00;;;;;13.70;93.72;100003.66;4968627;28;48421;-80
2023/04/23 02:16:56;;;;;;;;;2.67;2.67;;;;;13.70;96.57;100003.66;4967349;28;45409;-80
2023/04/23 02:19:22;;;;;;;;;4.67;2.33;;;;;13.67;96.91;100013.50;4967840;28;45445;-80
2023/04/23 02:21:47;;;;;;;;;2.00;2.00;;;;;13.62;95.02;100008.19;4967797;28;44919;-80
2023/04/23 02:24:12;;;;;;;;;4.00;2.67;;;;;13.61;97.07;100003.75;4968404;28;47207;-81
2023/04/23 02:26:38;;;;;;;;;3.67;3.00;;;;;13.59;95.15;99997.53;4988851;28;45490;-80
2023/04/23 02:29:03;;;;;;;;;3.33;3.33;;;;;13.59;94.80;99994.88;4988005;28;46028;-80
2023/04/23 02:31:29;;;;;;;;;2.67;2.67;;;;;13.60;96.44;100004.66;4988049;28;45468;-80
2023/04/23 02:37:16;;;;;;;;;4.00;3.00;;;;;13.54;95.95;99997.59;4987839;28;45389;-80
2023/04/23 02:39:41;;;;;;;;;4.33;3.00;;;;;13.55;96.03;99994.03;4970220;28;45413;-80
2023/04/23 02:42:07;;;;;;;;;2.00;2.00;;;;;13.50;98.32;99989.63;4969866;28;45435;-80
2023/04/23 02:44:32;;;;;;;;;2.67;2.67;;;;;13.42;96.79;99986.16;4970078;28;47404;-81
2023/04/23 02:46:58;;;;;;;;;2.00;1.00;;;;;13.43;98.80;99993.25;4987749;28;45483;-80
2023/04/23 02:49:23;;;;;;;;;5.00;2.00;;;;;13.37;100.00;99984.41;4969954;28;45354;-80
2023/04/23 02:51:48;;;;;;;;;2.33;2.33;;;;;13.27;100.00;99980.03;4968689;28;45635;-80
2023/04/23 02:54:14;;;;;;;;;4.00;2.67;;;;;13.27;100.00;99980.03;4969405;28;47963;-80
2023/04/23 02:56:39;;;;;;;;;4.67;3.67;;;;;13.22;100.00;99979.16;4987058;28;45436;-80
2023/04/23 02:59:05;;;;;;;;;2.00;2.00;;;;;13.18;100.00;99980.09;4970687;28;45438;-80
2023/04/23 03:01:31;;;;;;;;;1.67;1.67;;;;;13.04;100.00;99972.19;4988313;28;45384;-80
2023/04/23 03:03:57;;;;;;;;;4.33;4.00;;;;;13.05;100.00;99971.31;4970351;28;47015;-80
2023/04/23 03:06:23;;;;;;;;;2.33;2.33;;;;;13.04;100.00;99980.22;4970425;28;45711;-81
2023/04/23 03:08:48;;;;;;;;;3.00;3.00;;;;;12.97;100.00;99971.38;4987363;28;45838;-81
2023/04/23 03:11:13;;;;;;;;;2.67;2.67;;;;;12.96;100.00;99987.41;4987418;28;45875;-79
2023/04/23 03:13:39;;;;;;;;;3.33;3.00;;;;;12.94;100.00;99973.16;4986310;28;45407;-80
2023/04/23 03:16:04;;;;;;;;;3.33;2.33;;;;;12.86;100.00;99959.00;4986667;28;45531;-81
2023/04/23 03:18:30;;;;;;;;;4.00;3.00;;;;;12.87;100.00;99963.47;4969009;28;45497;-80
2023/04/23 03:20:55;;;;;;;;;2.67;2.00;;;;;12.80;100.00;99960.84;4969061;28;45514;-80
2023/04/23 03:23:21;;;;;;;;;3.00;2.00;;;;;12.80;100.00;99965.28;4969388;28;47052;-80
2023/04/23 03:25:46;;;;;;;;;3.00;3.00;;;;;12.77;100.00;99965.31;4986602;28;45402;-80
2023/04/23 03:28:11;;;;;;;;;4.00;3.00;;;;;12.70;100.00;99959.13;4986278;28;45821;-80
2023/04/23 03:30:37;;;;;;;;;2.00;2.00;;;;;12.69;100.00;99965.34;4986670;28;45424;-81
2023/04/23 03:33:02;;;;;;;;;3.67;3.67;;;;;12.66;100.00;99962.69;4969051;28;47892;-80
2023/04/23 03:35:28;;;;;;;;;2.00;2.00;;;;;12.66;100.00;99965.38;4986108;28;45380;-80
2023/04/23 03:37:53;;;;;;;;;1.50;1.50;;;;;12.71;100.00;99963.56;4968363;28;45398;-80
2023/04/23 03:40:19;;;;;;;;;3.00;3.00;;;;;12.78;100.00;99962.59;4985038;28;45372;-79
2023/04/23 03:42:45;;;;;;;;;2.67;2.67;;;;;12.79;100.00;99948.38;4968621;28;47177;-80
2023/04/23 03:45:12;;;;;;;;;4.00;4.00;;;;;12.86;100.00;99956.34;4986124;28;45410;-79
2023/04/23 03:47:38;;;;;;;;;5.33;3.00;;;;;12.93;100.00;99964.28;5002005;28;45500;-80
2023/04/23 03:50:05;;;;;;;;;2.33;2.33;;;;;12.97;100.00;99947.34;4987365;28;45673;-81
2023/04/23 03:52:31;;;;;;;;;4.00;2.67;;;;;13.10;100.00;99957.91;5006362;28;45384;-80
2023/04/23 03:54:56;;;;;;;;;4.00;2.67;;;;;13.08;100.00;99949.03;5007498;28;45833;-80
2023/04/23 03:57:22;;;;;;;;;5.00;4.00;;;;;13.16;100.00;99965.88;4988418;28;45486;-80
2023/04/23 03:59:49;;;;;;;;;4.00;4.00;;;;;13.23;100.00;99958.69;5008094;28;45449;-80
2023/04/23 04:02:15;;;;;;;;;2.00;2.00;;;;;13.17;100.00;99959.66;5007687;28;46043;-79
2023/04/23 04:04:41;;;;;;;;;2.00;2.00;;;;;13.19;100.00;99957.84;5005165;28;45502;-79
2023/04/23 04:07:10;;;;;;;;;4.00;3.00;;;;;13.15;100.00;99948.97;4989360;28;45486;-80
2023/04/23 04:09:36;;;;;;;;;4.33;4.33;;;;;13.12;100.00;99934.75;5005082;28;45458;-80
2023/04/23 04:12:03;;;;;;;;;4.00;4.00;;;;;13.14;100.00;99927.63;5004987;28;47306;-80
2023/04/23 04:14:30;;;;;;;;;3.33;2.33;;;;;12.97;100.00;99931.34;5005697;28;46100;-81
2023/04/23 04:16:55;;;;;;;;;6.33;3.00;;;;;12.99;100.00;99931.34;4990164;28;45557;-82
2023/04/23 04:19:21;;;;;;;;;4.00;4.00;;;;;12.99;100.00;99924.19;5006945;28;45436;-80
2023/04/23 04:21:46;;;;;;;;;2.00;2.00;;;;;12.95;100.00;99925.13;5005718;28;46927;-80
2023/04/23 04:24:12;;;;;;;;;4.33;3.67;;;;;12.92;100.00;99925.13;5006718;28;45758;-81
2023/04/23 04:26:38;;;;;;;;;3.00;3.00;;;;;12.89;100.00;99921.63;5006207;28;45490;-80
2023/04/23 04:29:03;;;;;;;;;9.00;5.67;;;;;12.83;100.00;99917.22;5007099;28;45849;-80
2023/04/23 04:31:29;;;;;;;;;4.00;3.00;;;;;12.80;100.00;99914.56;5005736;28;45530;-80
2023/04/23 04:33:58;;;;;;;;;4.00;3.00;;;;;12.73;100.00;99916.41;5006124;28;45454;-81
2023/04/23 04:36:25;;;;;;;;;5.00;3.00;;;;;12.72;100.00;99925.31;5004379;28;45354;-81
2023/04/23 04:38:52;;;;;;;;;4.00;3.00;;;;;12.69;100.00;99924.47;5006814;28;45355;-80
2023/04/23 04:41:20;;;;;;;;;2.67;2.67;;;;;12.66;100.00;99921.81;4988215;28;47272;-80
2023/04/23 04:43:47;;;;;;;;;3.67;3.33;;;;;12.59;100.00;99911.19;5004138;28;45468;-81
2023/04/23 04:46:12;;;;;;;;;3.67;3.67;;;;;12.59;100.00;99913.84;5004894;28;45387;-80
2023/04/23 04:48:38;;;;;;;;;8.00;6.33;;;;;12.59;100.00;99902.31;5003765;28;45563;-80
2023/04/23 04:51:03;;;;;;;;;3.67;3.67;;;;;12.56;100.00;99899.63;5006285;28;46226;-80
2023/04/23 04:53:29;;;;;;;;;5.00;3.33;;;;;12.59;100.00;99904.97;5006054;28;45404;-80
2023/04/23 04:55:54;;;;;;;;;5.33;5.00;;;;;12.56;100.00;99903.22;4988095;28;45336;-81
2023/04/23 04:58:20;;;;;;;;;3.00;3.00;;;;;12.51;100.00;99893.47;5005829;28;45252;-80
2023/04/23 05:00:47;;;;;;;;;6.67;6.67;;;;;12.49;100.00;99882.81;5004780;28;46074;-80
2023/04/23 05:03:13;;;;;;;;;5.67;4.00;;;;;12.54;100.00;99890.78;5004033;28;45389;-81
2023/04/23 05:05:38;;;;;;;;;7.00;7.00;;;;;12.49;100.00;99885.47;5004735;28;45403;-80
2023/04/23 05:08:04;;;;;;;;;8.00;5.00;;;;;12.52;100.00;99880.13;4988076;28;45871;-80
2023/04/23 05:10:29;;;;;;;;;4.00;3.00;;;;;12.57;100.00;99890.75;5003771;28;47091;-80
2023/04/23 05:12:56;;;;;;;;;9.00;5.00;;;;;12.60;100.00;99883.63;4987044;28;45817;-81
2023/04/23 05:15:22;;;;;;;;;4.00;4.00;;;;;12.54;100.00;99888.09;5004789;28;45416;-81
2023/04/23 05:17:49;;;;;;;;;7.00;5.33;;;;;12.51;100.00;99889.03;5003169;28;45447;-80
2023/04/23 05:20:14;;;;;;;;;3.33;3.33;;;;;12.57;100.00;99882.75;5003390;28;45535;-80
2023/04/23 05:22:41;;;;;;;;;4.67;4.00;;;;;12.63;100.00;99881.84;4986778;28;45341;-81
2023/04/23 05:25:08;;;;;;;;;8.33;6.67;;;;;12.64;100.00;99888.91;5003015;28;45371;-80
2023/04/23 05:27:34;;;;;;;;;5.00;4.00;;;;;12.58;100.00;99885.41;5005060;28;45569;-81
2023/04/23 05:30:02;;;;;;;;;9.33;5.00;;;;;12.70;100.00;99896.88;4990909;28;46088;-81
2023/04/23 05:32:27;;;;;;;;;7.33;7.00;;;;;12.59;100.00;99887.19;4985822;28;45504;-80
2023/04/23 05:34:53;;;;;;;;;4.67;3.00;;;;;12.57;100.00;99874.75;4968928;28;45408;-81
2023/04/23 05:37:18;;;;;;;;;4.33;3.67;;;;;12.56;100.00;99876.56;4969624;28;45447;-81
2023/04/23 05:39:43;;;;;;;;;7.00;4.67;;;;;12.57;100.00;99874.75;4969775;28;47190;-81
2023/04/23 05:42:09;;;;;;;;;4.00;4.00;;;;;12.51;100.00;99867.69;4968063;28;50572;-80
2023/04/23 05:44:34;;;;;;;;;3.00;3.00;;;;;12.57;100.00;99866.75;4987521;28;45269;-81
2023/04/23 05:46:59;;;;;;;;;4.33;4.33;;;;;12.57;100.00;99867.63;4967913;28;45515;-81
2023/04/23 05:49:26;;;;;;;;;3.00;3.00;;;;;12.54;100.00;99869.44;4967008;28;47085;-80
2023/04/23 05:51:51;;;;;;;;;3.00;3.00;;;;;12.57;100.00;99870.31;4967734;28;45465;-80
2023/04/23 05:54:17;;;;;;;;;2.33;1.67;;;;;12.55;100.00;99866.75;4980695;28;45477;-81
2023/04/23 05:56:42;;;;;;;;;7.00;5.00;;;;;12.59;100.00;99870.28;4987994;28;45465;-81
2023/04/23 05:59:07;;;;;;;;;7.00;4.33;;;;;12.52;100.00;99866.81;4994212;28;45502;-81
2023/04/23 06:01:33;;;;;;;;;3.00;3.00;;;;;12.55;100.00;99872.09;4984183;28;45332;-81
2023/04/23 06:03:59;;;;;;;;;5.00;5.00;;;;;12.60;100.00;99864.03;4984355;28;45744;-80
2023/04/23 06:06:25;;;;;;;;;3.00;3.00;;;;;12.51;100.00;99862.34;4984453;28;45365;-81
2023/04/23 06:08:50;;;;;;;;;3.00;3.00;;;;;12.52;100.00;99869.47;4984314;28;46253;-81
2023/04/23 06:11:16;;;;;;;;;3.33;3.33;;;;;12.50;100.00;99863.25;4966190;28;45483;-80
2023/04/23 06:13:41;;;;;;;;;8.33;7.00;;;;;12.50;100.00;99865.94;4968649;28;45409;-81
2023/04/23 06:16:08;;;;;;;;;4.67;3.00;;;;;12.52;100.00;99869.47;4985124;28;45432;-81
2023/04/23 06:18:34;;;;;;;;;4.00;3.00;;;;;12.51;100.00;99867.69;4984084;28;45772;-80
2023/04/23 06:21:03;;;;;;;;;4.33;4.33;;;;;12.50;100.00;99867.69;4985609;28;45419;-81
2023/04/23 06:23:29;;;;;;;;;6.67;5.00;;;;;12.54;100.00;99883.69;4985160;28;45457;-81
2023/04/23 06:25:54;;;;;;;;;3.33;2.00;;;;;12.53;100.00;99867.69;4985107;28;45448;-80
2023/04/23 06:28:21;;;;;;;;;3.00;2.00;;;;;12.65;100.00;99880.03;4968665;28;47061;-80
2023/04/23 06:30:46;;;;;;;;;3.33;3.33;;;;;12.57;100.00;99872.97;4985122;28;45405;-81
2023/04/23 06:33:19;;;;;;;;;3.67;3.67;;;;;12.55;100.00;99877.44;4984230;28;45487;-80
2023/04/23 06:35:45;;;;;;;;;2.00;1.00;;;;;12.52;100.00;99868.56;4984280;28;45376;-81
2023/04/23 06:38:11;;;;;;;;;2.00;2.00;;;;;12.52;100.00;99869.47;4984042;28;45328;-81
2023/04/23 06:40:37;;;;;;;;;4.67;3.67;;;;;12.62;100.00;99870.25;4985974;28;45387;-81
2023/04/23 06:43:04;;;;;;;;;4.67;3.00;;;;;12.52;100.00;99855.22;4985209;28;45424;-81
2023/04/23 06:45:34;;;;;;;;;5.33;4.00;;;;;12.60;100.00;99846.28;4966223;28;45335;-81
2023/04/23 06:47:59;;;;;;;;;5.00;4.33;;;;;12.52;100.00;99848.13;4984318;28;45754;-81
2023/04/23 06:50:25;;;;;;;;;6.33;3.67;;;;;12.59;100.00;99862.28;4966548;28;45373;-82
2023/04/23 06:52:52;;;;;;;;;3.67;3.67;;;;;12.65;100.00;99869.38;4967706;28;45388;-82
2023/04/23 06:55:17;;;;;;;;;4.00;4.00;;;;;12.59;100.00;99855.16;4984742;28;45472;-81
2023/04/23 06:57:43;;;;;;;;;4.67;3.00;;;;;12.56;100.00;99847.22;4984834;28;45420;-82
2023/04/23 07:00:09;;;;;;;;;4.33;4.33;;;;;12.59;100.00;99841.81;4985357;28;45460;-81
2023/04/23 07:02:35;;;;;;;;;3.67;3.67;;;;;12.52;100.00;99848.13;4968076;28;45763;-81
2023/04/23 07:05:02;;;;;;;;;4.00;3.67;;;;;12.62;100.00;99846.25;4967047;28;45543;-82
2023/04/23 07:07:28;;;;;;;;;4.33;3.00;;;;;12.51;100.00;99838.34;4966093;28;46818;-81
2023/04/23 07:09:53;;;;;;;;;4.00;4.00;;;;;12.46;100.00;99829.47;4983833;28;45867;-82
2023/04/23 07:12:19;;;;;;;;;6.67;4.67;;;;;12.50;100.00;99844.59;4969741;28;45748;-81
2023/04/23 07:14:44;;;;;;;;;5.00;5.00;;;;;12.47;100.00;99841.94;4969846;28;45459;-81
2023/04/23 07:20:32;;;;;;;;;7.33;5.00;;;;;12.51;100.00;99825.00;4988839;28;45408;-81
2023/04/23 07:22:58;;;;;;;;;7.00;7.00;;;;;12.57;100.00;99814.28;4971445;28;45533;-81
2023/04/23 07:25:25;;;;;;;;;4.00;4.00;;;;;12.53;100.00;99817.88;4987946;28;45699;-81
2023/04/23 07:27:50;;;;;;;;;6.33;6.33;;;;;12.52;100.00;99821.47;4969964;28;47260;-81
2023/04/23 07:30:18;;;;;;;;;6.67;5.00;;;;;12.64;100.00;99814.22;4976514;28;45480;-81
2023/04/23 07:32:43;;;;;;;;;8.33;7.00;;;;;12.58;100.00;99816.06;4991082;28;45386;-81
2023/04/23 07:35:10;;;;;;;;;7.67;7.33;;;;;12.61;100.00;99813.34;5008725;28;45356;-81
2023/04/23 07:37:36;;;;;;;;;6.67;4.00;;;;;12.65;100.00;99810.69;5007789;28;45213;-80
2023/04/23 07:40:04;;;;;;;;;9.67;8.33;;;;;12.74;100.00;99810.56;5008283;28;45759;-81
2023/04/23 07:42:30;;;;;;;;;4.67;4.67;;;;;12.73;100.00;99793.69;5007816;28;45478;-81
2023/04/23 07:44:55;;;;;;;;;9.33;9.00;;;;;12.80;100.00;99799.84;4990091;28;45432;-81
2023/04/23 07:47:20;;;;;;;;;6.00;6.00;;;;;12.77;100.00;99789.22;4994224;28;45400;-80
2023/04/23 07:49:46;;;;;;;;;8.67;8.33;;;;;12.71;100.00;99794.63;4987684;28;45370;-81
2023/04/23 07:52:17;;;;;;;;;8.67;7.67;;;;;12.90;100.00;99797.97;4970468;28;44918;-81
2023/04/23 07:54:43;;;;;;;;;3.00;3.00;;;;;12.81;100.00;99812.28;4987707;28;45389;-81
2023/04/23 07:57:11;;;;;;;;;10.67;9.00;;;;;12.86;100.00;99804.22;4986725;28;45820;-81
2023/04/23 07:59:38;;;;;;;;;9.33;8.00;;;;;12.91;100.00;99791.75;4968814;28;45392;-81
2023/04/23 08:02:03;;;;;;;;;8.33;8.33;;;;;12.97;100.00;99792.56;4988357;28;45357;-81
2023/04/23 08:04:30;;;;;;;;;8.33;8.33;;;;;13.02;100.00;99773.81;4969317;28;45468;-80
2023/04/23 08:06:56;;;;;;;;;8.67;8.67;;;;;12.95;100.00;99757.00;4969121;28;47645;-82
2023/04/23 08:09:21;;;;;;;;;9.00;9.00;;;;;13.01;100.00;99759.59;4969789;28;45456;-80
2023/04/23 08:11:47;;;;;;;;;10.00;10.00;;;;;13.04;100.00;99757.78;4987835;28;45556;-81
2023/04/23 08:14:13;;;;;;;;;9.00;9.00;;;;;13.08;100.00;99740.81;4987685;28;45504;-81
2023/04/23 08:16:38;;;;;;;;;11.00;11.00;;;;;13.19;100.00;99742.47;4988429;28;46135;-81
2023/04/23 08:19:04;;;;;;;;;8.33;8.33;;;;;13.29;100.00;99724.56;4969465;28;46115;-81
2023/04/23 08:21:31;;;;;;;;;9.00;9.00;;;;;13.40;100.00;99711.06;4987785;28;45439;-81
2023/04/23 08:23:57;;;;;;;;;9.67;9.67;;;;;13.38;100.00;99702.19;4971810;28;45480;-81
2023/04/23 08:26:22;;;;;;;;;10.33;9.00;;;;;13.47;100.00;99696.72;4969291;28;46975;-81
2023/04/23 08:32:11;;;;;;;;;11.00;9.67;;;;;13.62;100.00;99671.56;4986112;28;45424;-81
2023/04/23 08:34:37;;;;;;;;;10.67;10.67;;;;;13.67;100.00;99671.50;4969900;28;44831;-81
2023/04/23 08:37:03;;;;;;;;;9.67;9.67;;;;;13.79;100.00;99666.84;4969044;28;47421;-82
2023/04/23 08:39:31;;;;;;;;;11.33;11.33;;;;;13.89;100.00;99667.56;4986731;28;45720;-82
2023/04/23 08:42:03;;;;;;;;;8.67;8.33;;;;;14.05;100.00;99652.13;4968964;28;45384;-81
2023/04/23 08:44:31;;;;;;;;;15.67;12.67;;;;;14.21;100.00;99656.28;4987075;28;45396;-81
2023/04/23 08:46:59;;;;;;;;;10.33;10.00;;;;;14.31;100.00;99645.44;4970262;28;48292;-81
2023/04/23 08:49:32;;;;;;;;;11.67;11.67;;;;;14.48;100.00;99635.31;4969585;28;45475;-81
2023/04/23 08:52:04;;;;;;;;;10.33;10.33;;;;;14.53;100.00;99621.84;4986662;28;45504;-81
2023/04/23 08:54:33;;;;;;;;;8.67;8.67;;;;;14.57;100.00;99616.41;4969897;28;45448;-81
2023/04/23 08:56:59;;;;;;;;;13.00;13.00;;;;;14.67;100.00;99614.44;4986790;28;46309;-81
2023/04/23 08:59:28;;;;;;;;;13.00;11.00;;;;;14.75;100.00;99598.22;4977805;28;45428;-81
2023/04/23 09:01:56;;;;;;;;;5.00;5.00;;;;;14.86;100.00;99593.50;4967366;28;45719;-81
2023/04/23 09:04:23;;;;;;;;;16.67;14.33;;;;;14.91;100.00;99586.25;4949119;28;45518;-82
2023/04/23 09:06:49;;;;;;;;;17.67;14.00;;;;;14.98;100.00;99587.88;4950196;28;47245;-82
2023/04/23 09:09:16;;;;;;;;;12.67;12.67;;;;;15.10;100.00;99576.00;4949589;28;45808;-82
2023/04/23 09:11:42;;;;;;;;;14.67;12.67;;;;;15.25;100.00;99587.28;4967662;28;45376;-82
2023/04/23 09:14:09;;;;;;;;;13.33;11.67;;;;;15.36;100.00;99564.69;4968924;28;45386;-81
2023/04/23 09:16:35;;;;;;;;;13.00;12.67;;;;;15.43;100.00;99572.56;4967748;28;45644;-81
2023/04/23 09:19:01;;;;;;;;;10.33;10.33;;;;;15.43;100.00;99559.16;4966798;28;45636;-81
2023/04/23 09:21:26;;;;;;;;;17.67;16.67;;;;;15.53;100.00;99560.69;4949397;28;45433;-81
2023/04/23 09:23:52;;;;;;;;;16.00;15.33;;;;;15.51;100.00;99552.72;4950606;28;45501;-81
2023/04/23 09:26:21;;;;;;;;;12.00;11.33;;;;;15.62;100.00;99541.72;4967558;28;45589;-82
2023/04/23 09:28:50;;;;;;;;;12.67;12.00;;;;;15.61;100.00;99534.56;4948599;28;45563;-81
2023/04/23 09:31:23;;;;;;;;;19.00;12.67;;;;;15.70;100.00;99544.19;4966719;28;45382;-82
2023/04/23 09:33:53;;;;;;;;;12.67;12.33;;;;;15.68;100.00;99528.16;4948412;28;45706;-82
2023/04/23 09:36:26;;;;;;;;;11.67;11.67;;;;;15.73;100.00;99507.47;4967675;28;48299;-81
2023/04/23 09:38:57;;;;;;;;;12.33;12.33;;;;;15.84;100.00;99512.56;4968328;28;44845;-82
2023/04/23 09:41:27;;;;;;;;;13.67;11.67;;;;;15.94;100.00;99500.69;4986199;28;45492;-81
2023/04/23 09:43:56;;;;;;;;;16.00;16.00;;;;;16.00;100.00;99495.13;4968200;28;45465;-81
2023/04/23 09:46:38;;;;;;;;;17.00;12.00;;;;;16.10;100.00;99501.13;4970978;28;47128;-80
2023/04/23 09:49:09;;;;;;;;;14.00;14.00;;;;;16.02;100.00;99496.88;4982346;28;45439;-81
2023/04/23 09:51:39;;;;;;;;;12.67;12.67;;;;;16.15;100.00;99498.31;4988515;28;45451;-80
2023/04/23 09:54:13;;;;;;;;;10.67;9.67;;;;;16.17;100.00;99513.41;4982027;28;45516;-80
2023/04/23 09:56:43;;;;;;;;;12.33;10.67;;;;;16.25;100.00;99504.28;4968251;28;47090;-80
2023/04/23 09:59:20;;;;;;;;;12.67;12.67;;;;;16.28;100.00;99499.72;4968953;28;45387;-80
2023/04/23 10:01:46;;;;;;;;;10.67;8.33;;;;;16.05;100.00;99491.44;4968508;28;45483;-80
2023/04/23 10:04:17;;;;;;;;;15.33;15.33;;;;;15.93;100.00;99484.63;4986431;28;45809;-81
2023/04/23 10:06:42;;;;;;;;;13.00;12.00;;;;;15.77;100.00;99477.03;4968243;28;47991;-80
2023/04/23 10:09:08;;;;;;;;;12.00;12.00;;;;;15.78;100.00;99470.72;4986901;28;45420;-81
2023/04/23 10:11:34;;;;;;;;;12.67;11.33;;;;;15.75;100.00;99452.06;4969386;28;45369;-80
2023/04/23 10:13:59;;;;;;;;;12.00;11.67;;;;;15.80;100.00;99465.31;4968050;28;45377;-81
2023/04/23 10:16:26;;;;;;;;;12.00;11.67;;;;;15.82;100.00;99465.28;4984684;28;46932;-81
2023/04/23 10:18:52;;;;;;;;;10.00;10.00;;;;;15.73;100.00;99443.16;4986945;28;45658;-81
2023/04/23 10:21:18;;;;;;;;;13.33;13.33;;;;;15.73;100.00;99443.16;4986707;28;45434;-81
2023/04/23 10:23:47;;;;;;;;;9.67;7.33;;;;;15.92;100.00;99443.53;4986155;28;45419;-80
2023/04/23 10:26:21;;;;;;;;;13.00;11.33;;;;;16.10;98.58;99436.75;4968301;28;47216;-80
2023/04/23 10:28:49;;;;;;;;;11.67;10.33;;;;;16.17;97.73;99437.44;4969294;28;45241;-81
2023/04/23 10:31:18;;;;;;;;;10.67;8.67;;;;;16.21;96.75;99423.00;4968687;28;45361;-81
2023/04/23 10:33:46;;;;;;;;;14.00;13.33;;;;;16.21;96.71;99433.75;4985582;28;45508;-81
2023/04/23 10:36:11;;;;;;;;;9.00;9.00;;;;;16.10;96.55;99417.97;4967992;28;48262;-79
2023/04/23 10:38:40;;;;;;;;;10.00;10.00;;;;;16.05;96.55;99411.84;4968732;28;45397;-81
2023/04/23 10:41:07;;;;;;;;;9.00;9.00;;;;;15.95;96.93;99405.00;4985404;28;44892;-80
2023/04/23 10:43:32;;;;;;;;;11.33;8.00;;;;;15.88;96.65;99408.81;4985470;28;45469;-80
2023/04/23 10:45:59;;;;;;;;;10.00;10.00;;;;;15.86;96.63;99394.56;4969225;28;48509;-80
2023/04/23 10:48:27;;;;;;;;;11.33;10.00;;;;;15.77;97.58;99385.88;4988704;28;45394;-80
2023/04/23 10:54:18;;;;;;;;;8.67;8.67;;;;;15.70;98.20;99386.94;4986964;28;45981;-80
2023/04/23 10:56:44;;;;;;;;;9.33;9.00;;;;;15.53;99.48;99367.75;4969474;28;48446;-81
2023/04/23 10:59:20;;;;;;;;;8.33;8.33;;;;;15.51;99.57;99350.84;4970470;28;45728;-81
2023/04/23 11:01:47;;;;;;;;;10.33;10.00;;;;;15.42;100.00;99356.47;4970823;28;45376;-81
2023/04/23 11:04:27;;;;;;;;;9.67;8.67;;;;;15.51;100.00;99356.22;4972560;28;45468;-81
2023/04/23 11:07:04;;;;;;;;;7.00;7.00;;;;;15.48;100.00;99342.91;4973092;28;47200;-81
2023/04/23 11:09:33;;;;;;;;;7.67;5.67;;;;;15.46;100.00;99336.72;4991645;28;45325;-81
2023/04/23 11:12:00;;;;;;;;;5.33;5.33;;;;;15.44;100.00;99326.03;4991225;28;45784;-81
2023/04/23 11:14:34;;;;;;;;;6.00;6.00;;;;;15.56;100.00;99323.00;4973608;28;45503;-82
2023/04/23 11:16:59;;;;;;;;;6.00;5.00;;;;;15.48;100.00;99310.75;4973169;28;48494;-81
2023/04/23 11:19:24;;;;;;;;;7.00;7.00;;;;;15.48;100.00;99306.28;4973099;28;45447;-81
2023/04/23 11:22:01;;;;;;;;;8.33;7.67;;;;;15.55;100.00;99289.09;4989608;28;45426;-81
2023/04/23 11:24:27;;;;;;;;;5.67;5.67;;;;;15.47;100.00;99282.19;4990498;28;45358;-81
2023/04/23 11:26:53;;;;;;;;;8.67;6.67;;;;;15.33;100.00;99278.13;4972413;28;48412;-81
2023/04/23 11:29:24;;;;;;;;;8.00;6.00;;;;;15.38;100.00;99269.97;4971069;28;45452;-81
2023/04/23 11:31:50;;;;;;;;;6.00;5.00;;;;;15.30;100.00;99278.22;4972685;28;45571;-81